Time;durP1;ratioP1;P1;durP2;ratioP2;P2;SDS_P1;SDS_P2;PMS_P1;PMS_P2;Temp;Humidity;BMP_temperature;BMP_pressure;BME280_temperature;BME280_humidity;BME280_pressure;Samples;Min_cycle;Max_cycle;Signal;HPM_P1;HPM_P2
2021/11/06 00:01:12;;;;;;;2.90;1.93;;;10.50;99.90;;;;;;5025583;28;21718;-71
2021/11/06 00:03:45;;;;;;;4.17;2.07;;;10.50;99.90;;;;;;5027005;28;20247;-72
2021/11/06 00:06:14;;;;;;;3.13;1.90;;;10.50;99.90;;;;;;5024894;28;20670;-71
2021/11/06 00:08:50;;;;;;;2.80;1.70;;;10.50;99.90;;;;;;5024924;28;20605;-71
2021/11/06 00:11:18;;;;;;;6.40;1.97;;;10.50;99.90;;;;;;5023944;28;21028;-71
2021/11/06 00:13:44;;;;;;;3.90;1.93;;;10.40;99.90;;;;;;5024226;28;20654;-72
2021/11/06 00:16:09;;;;;;;3.97;1.63;;;10.40;99.90;;;;;;5021687;28;20931;-71
2021/11/06 00:18:40;;;;;;;3.43;1.97;;;10.40;99.90;;;;;;5024709;28;20246;-71
2021/11/06 00:21:11;;;;;;;2.20;1.87;;;10.40;99.90;;;;;;5026084;28;20251;-72
2021/11/06 00:23:44;;;;;;;8.03;2.53;;;10.50;99.90;;;;;;5026181;28;20630;-71
2021/11/06 00:26:15;;;;;;;3.93;1.93;;;10.50;99.90;;;;;;5026263;28;21017;-71
2021/11/06 00:28:41;;;;;;;4.43;1.87;;;10.50;99.90;;;;;;5023156;28;20899;-71
2021/11/06 00:31:06;;;;;;;4.23;2.00;;;10.40;99.90;;;;;;5022349;28;20654;-71
2021/11/06 00:33:35;;;;;;;4.03;2.30;;;10.40;99.90;;;;;;5025078;28;20295;-72
2021/11/06 00:36:00;;;;;;;3.57;1.53;;;10.40;99.90;;;;;;5025819;28;20189;-71
2021/11/06 00:38:26;;;;;;;4.20;2.63;;;10.50;99.90;;;;;;5023661;28;20620;-71
2021/11/06 00:40:51;;;;;;;5.07;2.00;;;10.50;99.90;;;;;;5020689;28;20238;-72
2021/11/06 00:43:17;;;;;;;5.57;2.20;;;10.50;99.90;;;;;;5022752;28;20216;-73
2021/11/06 00:45:42;;;;;;;5.20;1.67;;;10.50;99.90;;;;;;5021687;28;20188;-71
2021/11/06 00:48:10;;;;;;;3.57;1.60;;;10.40;99.90;;;;;;5025186;28;20197;-71
2021/11/06 00:50:37;;;;;;;2.50;1.70;;;10.40;99.90;;;;;;5021976;28;20225;-72
2021/11/06 00:53:03;;;;;;;2.53;1.43;;;10.50;99.90;;;;;;5024192;28;21209;-71
2021/11/06 00:55:28;;;;;;;5.77;1.90;;;10.50;99.90;;;;;;5024549;28;20677;-71
2021/11/06 00:57:58;;;;;;;2.90;1.70;;;10.50;99.90;;;;;;5022290;28;20189;-72
2021/11/06 01:00:26;;;;;;;2.80;1.80;;;10.40;99.90;;;;;;5022095;28;20292;-71
2021/11/06 01:02:55;;;;;;;2.47;1.60;;;10.50;99.90;;;;;;5020994;28;20685;-71
2021/11/06 01:05:29;;;;;;;4.07;2.13;;;10.40;99.90;;;;;;5003541;28;20662;-71
2021/11/06 01:08:02;;;;;;;3.87;1.97;;;10.50;99.90;;;;;;5022071;28;20778;-72
2021/11/06 01:10:37;;;;;;;4.67;1.87;;;10.50;99.90;;;;;;5023757;28;20659;-71
2021/11/06 01:13:03;;;;;;;2.30;1.73;;;10.50;99.90;;;;;;5020306;28;20704;-71
2021/11/06 01:15:31;;;;;;;6.33;2.40;;;10.40;99.90;;;;;;5021095;28;20615;-72
2021/11/06 01:18:05;;;;;;;2.27;1.80;;;10.40;99.90;;;;;;5020734;28;20627;-72
2021/11/06 01:20:36;;;;;;;2.93;1.90;;;10.40;99.90;;;;;;5020799;28;20647;-74
2021/11/06 01:23:04;;;;;;;2.60;1.70;;;10.30;99.90;;;;;;5023470;28;20659;-73
2021/11/06 01:25:30;;;;;;;4.67;2.00;;;10.30;99.90;;;;;;5024395;28;20684;-72
2021/11/06 01:27:56;;;;;;;3.30;1.83;;;10.30;99.90;;;;;;5023837;28;20612;-72
2021/11/06 01:30:24;;;;;;;2.97;1.87;;;10.20;99.90;;;;;;5021374;28;21375;-74
2021/11/06 01:32:50;;;;;;;4.90;2.10;;;10.20;99.90;;;;;;5022851;28;20673;-72
2021/11/06 01:35:23;;;;;;;2.40;1.87;;;10.30;99.90;;;;;;5024195;28;20616;-71
2021/11/06 01:37:52;;;;;;;3.47;2.07;;;10.30;99.90;;;;;;5021224;28;20266;-70
2021/11/06 01:40:20;;;;;;;4.43;2.33;;;10.30;99.90;;;;;;5016680;28;20685;-72
2021/11/06 01:42:46;;;;;;;3.30;1.77;;;10.30;99.90;;;;;;5025296;28;20723;-72
2021/11/06 01:45:22;;;;;;;3.23;1.83;;;10.30;99.90;;;;;;5024322;28;20657;-72
2021/11/06 01:47:49;;;;;;;3.50;2.20;;;10.20;99.90;;;;;;5022118;28;20602;-72
2021/11/06 01:50:19;;;;;;;3.10;1.93;;;10.20;99.90;;;;;;5023779;28;21040;-73
2021/11/06 01:52:48;;;;;;;2.50;1.80;;;10.20;99.90;;;;;;5024899;28;20724;-72
2021/11/06 01:55:21;;;;;;;2.10;1.60;;;10.20;99.90;;;;;;5024612;28;20649;-73
2021/11/06 01:57:50;;;;;;;5.13;2.10;;;10.20;99.90;;;;;;5023270;28;20595;-73
2021/11/06 02:00:27;;;;;;;5.87;2.17;;;10.20;99.90;;;;;;5023144;28;20651;-74
2021/11/06 02:02:56;;;;;;;3.40;1.77;;;10.20;99.90;;;;;;5024770;28;20643;-73
2021/11/06 02:05:22;;;;;;;4.63;2.07;;;10.20;99.90;;;;;;4981610;28;21177;-73
2021/11/06 02:07:52;;;;;;;3.30;2.13;;;10.20;99.90;;;;;;5024926;28;20780;-72
2021/11/06 02:10:18;;;;;;;2.80;1.63;;;10.30;99.90;;;;;;5023316;28;20286;-73
2021/11/06 02:12:47;;;;;;;2.67;1.70;;;10.30;99.90;;;;;;5022989;28;20655;-73
2021/11/06 02:15:16;;;;;;;3.50;1.93;;;10.20;99.90;;;;;;5018665;28;20801;-73
2021/11/06 02:17:46;;;;;;;4.43;2.03;;;10.20;99.90;;;;;;5018530;28;21050;-72
2021/11/06 02:20:15;;;;;;;4.60;2.07;;;10.20;99.90;;;;;;5020743;28;20728;-74
2021/11/06 02:22:41;;;;;;;3.37;2.00;;;10.20;99.90;;;;;;5021122;28;20955;-72
2021/11/06 02:25:10;;;;;;;2.90;1.80;;;10.20;99.90;;;;;;5023473;28;21149;-72
2021/11/06 02:27:41;;;;;;;3.07;1.60;;;10.20;99.90;;;;;;5021296;28;20967;-72
2021/11/06 02:30:15;;;;;;;5.00;2.10;;;10.20;99.90;;;;;;5019933;28;20594;-73
2021/11/06 02:32:40;;;;;;;3.63;2.03;;;10.30;99.90;;;;;;5002070;28;20748;-72
2021/11/06 02:35:09;;;;;;;3.50;1.83;;;10.20;99.90;;;;;;5022298;28;20627;-72
2021/11/06 02:37:37;;;;;;;4.53;1.90;;;10.20;99.90;;;;;;5019045;28;20246;-72
2021/11/06 02:40:11;;;;;;;4.80;2.27;;;10.30;99.90;;;;;;5017365;28;20761;-74
2021/11/06 02:42:37;;;;;;;4.30;1.90;;;10.20;99.90;;;;;;5012022;28;20636;-73
2021/11/06 02:45:05;;;;;;;4.60;2.10;;;10.20;99.90;;;;;;5021282;28;20616;-74
2021/11/06 02:47:31;;;;;;;4.13;2.03;;;10.20;99.90;;;;;;5021161;28;20221;-72
2021/11/06 02:50:06;;;;;;;3.17;2.20;;;10.20;99.90;;;;;;5008019;28;20722;-72
2021/11/06 02:52:32;;;;;;;3.40;2.30;;;10.20;99.90;;;;;;5023671;28;20627;-72
2021/11/06 02:55:00;;;;;;;3.10;2.10;;;10.20;99.90;;;;;;5023598;28;20937;-72
2021/11/06 02:57:27;;;;;;;3.50;2.30;;;10.20;99.90;;;;;;5021623;28;20637;-72
2021/11/06 03:00:02;;;;;;;4.90;2.43;;;10.20;99.90;;;;;;5021614;28;20643;-72
2021/11/06 03:02:28;;;;;;;9.33;2.50;;;10.20;99.90;;;;;;5022658;28;20816;-72
2021/11/06 03:04:56;;;;;;;2.53;1.80;;;10.20;99.90;;;;;;5023977;28;20686;-73
2021/11/06 03:07:25;;;;;;;4.07;2.10;;;10.20;99.90;;;;;;5004548;28;20189;-73
2021/11/06 03:09:50;;;;;;;3.60;2.70;;;10.20;99.90;;;;;;5021488;28;20685;-73
2021/11/06 03:12:19;;;;;;;5.80;2.13;;;10.20;99.90;;;;;;5022691;28;20623;-73
2021/11/06 03:14:52;;;;;;;3.70;2.10;;;10.20;99.90;;;;;;5020438;28;20181;-74
2021/11/06 03:17:18;;;;;;;4.93;2.37;;;10.20;99.90;;;;;;5020664;28;20673;-72
2021/11/06 03:19:47;;;;;;;5.37;2.40;;;10.20;99.90;;;;;;5019638;28;20657;-72
2021/11/06 03:22:15;;;;;;;2.73;2.07;;;10.20;99.90;;;;;;5021692;28;21094;-72
2021/11/06 03:24:45;;;;;;;5.00;2.70;;;10.20;99.90;;;;;;5022264;28;20988;-72
2021/11/06 03:27:11;;;;;;;4.23;2.50;;;10.20;99.90;;;;;;5008991;28;20749;-70
2021/11/06 03:29:41;;;;;;;3.47;2.43;;;10.10;99.90;;;;;;5027312;28;21075;-73
2021/11/06 03:32:08;;;;;;;6.43;2.73;;;10.10;99.90;;;;;;5026208;28;21013;-73
2021/11/06 03:34:37;;;;;;;3.50;2.80;;;10.10;99.90;;;;;;5026066;28;20666;-71
2021/11/06 03:37:04;;;;;;;2.50;2.30;;;10.10;99.90;;;;;;5026028;28;21189;-72
2021/11/06 03:39:32;;;;;;;4.30;2.40;;;10.00;99.90;;;;;;5008110;28;21280;-71
2021/11/06 03:41:58;;;;;;;3.30;3.00;;;10.10;99.90;;;;;;5026025;28;20630;-72
2021/11/06 03:44:26;;;;;;;3.97;2.40;;;10.00;99.90;;;;;;5025551;28;20627;-75
2021/11/06 03:46:52;;;;;;;4.53;2.70;;;9.90;99.90;;;;;;5026286;28;20206;-72
2021/11/06 03:49:20;;;;;;;4.37;2.43;;;10.00;99.90;;;;;;5026971;28;20627;-72
2021/11/06 03:51:46;;;;;;;3.63;2.40;;;10.00;99.90;;;;;;5025533;28;20623;-71
2021/11/06 03:54:14;;;;;;;5.90;2.63;;;9.90;99.90;;;;;;5028008;28;20693;-72
2021/11/06 03:56:41;;;;;;;3.30;2.53;;;9.90;99.90;;;;;;5023685;28;20220;-72
2021/11/06 03:59:07;;;;;;;2.50;2.20;;;9.90;99.90;;;;;;5024704;28;20643;-73
2021/11/06 04:01:36;;;;;;;6.93;2.63;;;9.90;99.90;;;;;;5023622;28;20646;-72
2021/11/06 04:04:05;;;;;;;4.33;2.50;;;9.80;99.90;;;;;;5026725;28;20290;-72
2021/11/06 04:06:53;;;;;;;4.70;2.70;;;9.80;99.90;;;;;;5025924;28;23306;-72
2021/11/06 04:09:18;;;;;;;3.83;2.93;;;9.80;99.90;;;;;;5026341;28;20638;-72
2021/11/06 04:11:44;;;;;;;5.00;4.23;;;9.80;99.90;;;;;;5026347;28;20639;-72
2021/11/06 04:14:12;;;;;;;8.97;3.03;;;9.80;99.90;;;;;;5026899;28;20219;-73
2021/11/06 04:16:37;;;;;;;3.83;2.67;;;9.80;99.90;;;;;;5018815;28;20209;-74
2021/11/06 04:19:05;;;;;;;3.20;2.80;;;9.80;99.90;;;;;;5025098;28;20988;-73
2021/11/06 04:21:34;;;;;;;5.13;3.27;;;9.80;99.90;;;;;;5025101;28;20291;-73
2021/11/06 04:24:02;;;;;;;4.33;3.33;;;9.90;99.90;;;;;;5026629;28;20703;-73
2021/11/06 04:26:30;;;;;;;6.47;4.00;;;9.90;99.90;;;;;;5026821;28;20647;-73
2021/11/06 04:28:58;;;;;;;4.40;3.80;;;9.90;99.90;;;;;;5024959;28;21197;-73
2021/11/06 04:31:23;;;;;;;5.17;3.43;;;9.90;99.90;;;;;;5023271;28;20638;-73
2021/11/06 04:33:49;;;;;;;4.33;3.60;;;9.80;99.90;;;;;;5024563;28;20651;-72
2021/11/06 04:36:16;;;;;;;4.47;3.90;;;9.80;99.90;;;;;;5024886;28;20197;-73
2021/11/06 04:38:42;;;;;;;4.17;3.80;;;9.80;99.90;;;;;;5027642;28;20607;-72
2021/11/06 04:41:08;;;;;;;4.63;3.63;;;9.80;99.90;;;;;;5013236;28;20758;-72
2021/11/06 04:43:34;;;;;;;3.93;3.33;;;9.80;99.90;;;;;;5025175;28;21179;-73
2021/11/06 04:46:00;;;;;;;7.10;4.17;;;9.80;99.90;;;;;;5025791;28;20192;-72
2021/11/06 04:48:29;;;;;;;4.27;3.60;;;9.80;99.90;;;;;;5025869;28;21079;-73
2021/11/06 04:50:57;;;;;;;4.00;3.70;;;9.70;99.90;;;;;;5024258;28;20217;-73
2021/11/06 04:53:23;;;;;;;5.37;4.87;;;9.90;99.90;;;;;;5022756;28;20627;-73
2021/11/06 04:55:48;;;;;;;4.70;4.30;;;9.80;99.90;;;;;;5025771;28;20642;-72
2021/11/06 04:58:14;;;;;;;8.40;4.60;;;9.80;99.90;;;;;;5022719;28;20678;-73
2021/11/06 05:00:40;;;;;;;5.07;4.67;;;9.80;99.90;;;;;;5023448;28;20260;-71
2021/11/06 05:03:17;;;;;;;4.90;4.23;;;9.80;99.90;;;;;;5023448;28;20736;-71
2021/11/06 05:05:43;;;;;;;6.77;4.83;;;9.80;99.90;;;;;;5024813;28;20506;-71
2021/11/06 05:08:08;;;;;;;5.23;4.70;;;9.80;99.90;;;;;;5023314;28;20627;-72
2021/11/06 05:10:38;;;;;;;7.60;5.10;;;9.80;99.90;;;;;;5023307;28;20236;-72
2021/11/06 05:13:03;;;;;;;5.40;4.90;;;9.80;99.90;;;;;;5024612;28;20257;-71
2021/11/06 05:15:30;;;;;;;8.10;6.20;;;9.80;99.90;;;;;;5023488;28;20611;-72
2021/11/06 05:17:58;;;;;;;7.13;5.40;;;9.90;99.90;;;;;;5020741;28;20229;-71
2021/11/06 05:20:31;;;;;;;7.90;5.40;;;9.90;99.90;;;;;;5020360;28;20642;-71
2021/11/06 05:22:57;;;;;;;6.33;5.67;;;9.90;99.90;;;;;;5025851;28;20662;-71
2021/11/06 05:25:22;;;;;;;6.50;5.70;;;9.90;99.90;;;;;;5025864;28;20607;-71
2021/11/06 05:27:48;;;;;;;9.57;6.13;;;9.90;99.90;;;;;;5022325;28;20185;-72
2021/11/06 05:30:16;;;;;;;8.07;5.93;;;9.90;99.90;;;;;;5021772;28;20669;-71
2021/11/06 05:32:42;;;;;;;10.03;5.97;;;9.90;99.90;;;;;;5027544;28;20251;-71
2021/11/06 05:35:12;;;;;;;6.90;6.20;;;9.90;99.90;;;;;;5025689;28;21345;-71
2021/11/06 05:37:41;;;;;;;7.43;6.00;;;9.90;99.90;;;;;;5022666;28;20279;-71
2021/11/06 05:40:13;;;;;;;7.17;6.47;;;10.00;99.90;;;;;;5024177;28;21230;-72
2021/11/06 05:42:39;;;;;;;12.13;6.70;;;10.00;99.90;;;;;;5025649;28;20635;-71
2021/11/06 05:45:08;;;;;;;9.27;6.70;;;10.00;99.90;;;;;;5023589;28;20608;-72
2021/11/06 05:47:37;;;;;;;7.53;6.47;;;10.00;99.90;;;;;;5025095;28;20595;-71
2021/11/06 05:50:10;;;;;;;7.83;6.23;;;9.90;99.90;;;;;;5021521;28;20634;-72
2021/11/06 05:52:37;;;;;;;7.90;6.70;;;9.90;99.90;;;;;;5019038;28;20657;-72
2021/11/06 05:55:08;;;;;;;8.70;6.67;;;10.10;99.90;;;;;;5024051;28;20684;-71
2021/11/06 05:57:35;;;;;;;6.97;6.30;;;10.00;99.90;;;;;;5023006;28;21084;-72
2021/11/06 06:00:06;;;;;;;10.03;6.60;;;9.90;99.90;;;;;;5020943;28;20719;-73
2021/11/06 06:02:31;;;;;;;8.17;6.93;;;10.20;99.90;;;;;;5004576;28;20668;-72
2021/11/06 06:04:57;;;;;;;7.63;6.80;;;10.00;99.90;;;;;;5022821;28;20608;-72
2021/11/06 06:07:25;;;;;;;8.67;6.67;;;10.00;99.90;;;;;;5022594;28;20636;-73
2021/11/06 06:09:52;;;;;;;8.13;7.30;;;10.00;99.90;;;;;;5021442;28;20914;-72
2021/11/06 06:12:20;;;;;;;8.43;5.93;;;10.00;99.90;;;;;;5019614;28;20647;-73
2021/11/06 06:14:46;;;;;;;8.90;7.23;;;10.00;99.90;;;;;;5022455;28;20913;-73
2021/11/06 06:17:12;;;;;;;9.77;7.07;;;10.00;99.90;;;;;;5019527;28;21088;-73
2021/11/06 06:19:39;;;;;;;11.00;7.07;;;10.00;99.90;;;;;;5017714;28;20237;-73
2021/11/06 06:22:08;;;;;;;9.40;6.70;;;10.00;99.90;;;;;;5022193;28;20650;-72
2021/11/06 06:24:36;;;;;;;7.90;6.90;;;10.00;99.90;;;;;;5002976;28;20654;-73
2021/11/06 06:27:04;;;;;;;8.67;7.40;;;9.90;99.90;;;;;;5021684;28;21331;-72
2021/11/06 06:29:30;;;;;;;9.40;7.27;;;9.90;99.90;;;;;;5021738;28;20607;-72
2021/11/06 06:31:57;;;;;;;6.83;6.23;;;9.90;99.90;;;;;;5020334;28;20766;-72
2021/11/06 06:34:23;;;;;;;14.23;7.33;;;9.90;99.90;;;;;;5021949;28;20640;-72
2021/11/06 06:36:51;;;;;;;8.67;7.00;;;9.90;99.90;;;;;;5022456;28;20630;-72
2021/11/06 06:39:17;;;;;;;11.37;7.83;;;9.90;99.90;;;;;;5022737;28;20209;-74
2021/11/06 06:41:43;;;;;;;8.30;6.70;;;9.90;99.90;;;;;;5021397;28;20631;-73
2021/11/06 06:44:09;;;;;;;8.47;7.30;;;9.90;99.90;;;;;;5021329;28;20316;-73
2021/11/06 06:46:37;;;;;;;8.67;7.50;;;9.90;99.90;;;;;;5019231;28;20631;-73
2021/11/06 06:49:05;;;;;;;8.40;6.63;;;9.90;99.90;;;;;;5014391;28;21183;-73
2021/11/06 06:51:37;;;;;;;10.07;7.30;;;10.00;99.90;;;;;;5021301;28;20731;-73
2021/11/06 06:54:02;;;;;;;10.10;7.00;;;10.00;99.90;;;;;;5019656;28;20671;-73
2021/11/06 06:56:31;;;;;;;9.20;7.83;;;10.00;99.90;;;;;;5021060;28;20656;-73
2021/11/06 06:58:56;;;;;;;10.50;9.00;;;9.90;99.90;;;;;;5017973;28;20831;-72
2021/11/06 07:01:29;;;;;;;10.37;8.50;;;9.90;99.90;;;;;;5021721;28;20753;-73
2021/11/06 07:04:04;;;;;;;10.27;8.10;;;9.80;99.90;;;;;;5021554;28;20270;-75
2021/11/06 07:06:33;;;;;;;9.97;8.80;;;9.90;99.90;;;;;;5023176;28;20606;-74
2021/11/06 07:09:03;;;;;;;9.33;7.83;;;9.90;99.90;;;;;;5000252;28;20616;-73
2021/11/06 07:11:29;;;;;;;9.63;8.30;;;10.00;99.90;;;;;;5022641;28;20642;-74
2021/11/06 07:13:55;;;;;;;10.00;8.73;;;10.00;99.90;;;;;;5023480;28;20978;-73
2021/11/06 07:16:20;;;;;;;9.70;8.77;;;10.00;99.90;;;;;;5019982;28;20205;-74
2021/11/06 07:18:46;;;;;;;18.30;9.47;;;10.00;99.90;;;;;;5021914;28;20265;-75
2021/11/06 07:21:14;;;;;;;12.13;8.57;;;9.90;99.90;;;;;;5021134;28;20232;-73
2021/11/06 07:23:39;;;;;;;10.93;8.47;;;10.00;99.90;;;;;;5020473;28;20266;-73
2021/11/06 07:26:10;;;;;;;9.87;8.83;;;10.00;99.90;;;;;;5028351;28;20611;-74
2021/11/06 07:28:39;;;;;;;12.50;9.60;;;10.00;99.90;;;;;;5028283;28;20204;-73
2021/11/06 07:31:07;;;;;;;11.53;9.30;;;10.00;99.90;;;;;;5024477;28;21202;-73
2021/11/06 07:33:33;;;;;;;13.90;10.33;;;10.00;99.90;;;;;;5024829;28;20861;-73
2021/11/06 07:35:58;;;;;;;14.73;9.20;;;10.00;99.90;;;;;;5022941;28;20694;-73
2021/11/06 07:38:27;;;;;;;12.33;9.37;;;9.90;99.90;;;;;;5016741;28;21265;-73
2021/11/06 07:40:53;;;;;;;10.37;9.23;;;9.90;99.90;;;;;;5020129;28;22909;-73
2021/11/06 07:43:21;;;;;;;16.13;11.13;;;9.90;99.90;;;;;;5022165;28;20681;-73
2021/11/06 07:45:49;;;;;;;15.00;10.80;;;10.00;99.90;;;;;;5005578;28;20731;-73
2021/11/06 07:48:17;;;;;;;14.70;11.57;;;10.00;99.90;;;;;;5025371;28;22228;-73
2021/11/06 07:50:43;;;;;;;12.97;10.50;;;9.90;99.90;;;;;;5023595;28;21017;-73
2021/11/06 07:53:11;;;;;;;12.20;10.90;;;10.00;99.90;;;;;;5024471;28;20651;-73
2021/11/06 07:55:37;;;;;;;13.17;10.90;;;10.00;99.90;;;;;;5026503;28;21031;-73
2021/11/06 07:58:09;;;;;;;14.20;12.40;;;10.00;99.90;;;;;;5026186;28;20606;-73
2021/11/06 08:00:35;;;;;;;14.47;12.97;;;10.00;99.90;;;;;;5022356;28;20697;-73
2021/11/06 08:03:03;;;;;;;16.87;12.73;;;10.00;99.90;;;;;;5021330;28;20683;-72
2021/11/06 08:05:29;;;;;;;17.33;13.47;;;10.00;99.90;;;;;;5014008;28;21050;-74
2021/11/06 08:08:00;;;;;;;16.23;13.23;;;10.10;99.90;;;;;;5020219;28;20655;-73
2021/11/06 08:10:28;;;;;;;14.60;12.13;;;10.10;99.90;;;;;;5014817;28;20606;-72
2021/11/06 08:12:57;;;;;;;16.90;13.73;;;10.10;99.90;;;;;;5018890;28;20640;-73
2021/11/06 08:15:22;;;;;;;16.83;13.57;;;10.20;99.90;;;;;;5019785;28;20680;-73
2021/11/06 08:17:49;;;;;;;22.37;15.60;;;10.20;99.90;;;;;;5023718;28;21244;-72
2021/11/06 08:20:17;;;;;;;17.50;14.77;;;10.30;99.90;;;;;;5019664;28;20236;-73
2021/11/06 08:22:45;;;;;;;18.33;14.70;;;10.20;99.90;;;;;;5021212;28;20794;-74
2021/11/06 08:25:15;;;;;;;20.33;15.83;;;10.30;99.90;;;;;;5019952;28;20695;-74
2021/11/06 08:27:49;;;;;;;22.03;16.20;;;10.30;99.90;;;;;;5020940;28;20591;-68
2021/11/06 08:30:16;;;;;;;25.83;18.07;;;10.30;99.90;;;;;;5017701;28;20643;-68
2021/11/06 08:32:42;;;;;;;24.80;17.23;;;10.40;99.90;;;;;;5021726;28;20978;-73
2021/11/06 08:35:09;;;;;;;20.17;16.80;;;10.40;99.90;;;;;;5022242;28;21040;-73
2021/11/06 08:37:38;;;;;;;24.37;18.03;;;10.40;99.90;;;;;;5015560;28;20718;-73
2021/11/06 08:40:05;;;;;;;21.77;16.80;;;10.40;99.90;;;;;;5014526;28;21013;-74
2021/11/06 08:42:34;;;;;;;24.93;18.50;;;10.50;99.90;;;;;;5004243;28;21223;-73
2021/11/06 08:45:00;;;;;;;24.20;18.63;;;10.40;99.90;;;;;;5018191;28;20983;-75
2021/11/06 08:53:16;;;;;;;26.53;21.40;;;10.50;99.90;;;;;;4975210;28;21155;-72
2021/11/06 08:55:41;;;;;;;24.63;19.93;;;10.50;99.90;;;;;;4979015;28;20633;-72
2021/11/06 08:58:07;;;;;;;25.90;20.13;;;10.40;99.90;;;;;;4979334;28;20217;-73
2021/11/06 09:00:37;;;;;;;27.10;20.40;;;10.50;99.90;;;;;;4975200;28;20225;-73
2021/11/06 09:03:06;;;;;;;25.90;20.20;;;10.50;99.90;;;;;;4981312;28;20190;-73
2021/11/06 09:05:33;;;;;;;24.33;20.17;;;10.60;99.90;;;;;;4967832;28;20625;-73
2021/11/06 09:08:03;;;;;;;25.93;20.80;;;10.60;99.90;;;;;;4977332;28;20748;-72
2021/11/06 09:10:29;;;;;;;28.30;21.40;;;10.60;99.90;;;;;;4980357;28;20810;-72
2021/11/06 09:12:55;;;;;;;29.63;21.30;;;10.70;99.90;;;;;;5000557;28;21017;-71
2021/11/06 09:15:21;;;;;;;27.27;21.20;;;10.70;99.90;;;;;;5011025;28;20747;-72
2021/11/06 09:17:48;;;;;;;26.80;19.83;;;10.70;99.90;;;;;;5004921;28;21212;-71
2021/11/06 09:20:14;;;;;;;31.90;22.23;;;10.70;99.90;;;;;;5004527;28;20232;-72
2021/11/06 09:22:40;;;;;;;27.40;21.40;;;10.80;99.90;;;;;;4991827;28;20638;-71
2021/11/06 09:25:06;;;;;;;28.63;21.30;;;10.80;99.90;;;;;;5016343;28;20752;-71
2021/11/06 09:27:33;;;;;;;26.97;22.00;;;10.90;99.90;;;;;;4995713;28;20223;-71
2021/11/06 09:29:59;;;;;;;27.90;22.33;;;10.90;99.90;;;;;;5005846;28;20662;-71
2021/11/06 09:32:24;;;;;;;28.50;21.80;;;10.90;99.90;;;;;;5011712;28;20737;-71
2021/11/06 09:34:50;;;;;;;25.17;20.57;;;10.90;99.90;;;;;;5012251;28;20194;-71
2021/11/06 09:37:16;;;;;;;26.40;20.57;;;10.80;99.90;;;;;;5011748;28;20185;-71
2021/11/06 09:39:42;;;;;;;27.20;21.47;;;10.90;99.90;;;;;;4995216;28;20247;-71
2021/11/06 09:42:08;;;;;;;27.27;21.13;;;10.90;99.90;;;;;;4982301;28;20242;-66
2021/11/06 09:44:41;;;;;;;25.40;21.53;;;11.00;99.90;;;;;;5051984;28;20735;-71
2021/11/06 10:29:56;;;;;;;;;;;;;;;;;;;;;
2021/11/06 11:07:52;;;;;;;;;;;;;;;;;;;;;
2021/11/06 11:55:19;;;;;;;26.27;22.20;;;11.20;99.90;;;;;;4819385;29;20752;-70
2021/11/06 11:58:03;;;;;;;24.93;21.10;;;11.30;99.90;;;;;;4823821;29;20886;-72
2021/11/06 12:00:29;;;;;;;27.63;21.77;;;11.30;99.90;;;;;;4825933;29;20655;-73
2021/11/06 12:03:00;;;;;;;26.60;21.73;;;11.30;99.90;;;;;;4886778;29;21013;-71
2021/11/06 12:05:26;;;;;;;25.47;21.70;;;11.30;99.90;;;;;;4896164;29;20209;-70
2021/11/06 12:08:10;;;;;;;26.07;22.43;;;11.40;99.90;;;;;;4897208;29;20688;-73
2021/11/06 12:10:43;;;;;;;26.40;21.40;;;11.30;99.90;;;;;;4895895;28;20668;-71
2021/11/06 12:13:34;;;;;;;25.57;21.60;;;11.30;99.90;;;;;;4942480;28;21249;-70
2021/11/06 12:16:01;;;;;;;26.93;21.80;;;11.40;99.90;;;;;;4957715;28;20674;-63
2021/11/06 12:18:32;;;;;;;26.20;22.10;;;11.40;99.90;;;;;;4959320;28;20606;-63
2021/11/06 12:21:16;;;;;;;26.53;20.97;;;11.40;99.90;;;;;;4955580;28;20666;-63
2021/11/06 12:23:47;;;;;;;26.93;22.30;;;11.40;99.90;;;;;;4962115;28;21193;-63
2021/11/06 12:26:19;;;;;;;27.80;21.00;;;11.50;99.90;;;;;;4952841;28;20614;-63
2021/11/06 12:28:50;;;;;;;27.67;21.53;;;11.60;99.90;;;;;;4959857;28;20610;-73
2021/11/06 12:31:28;;;;;;;26.67;20.23;;;11.60;99.90;;;;;;4962220;28;20661;-73
2021/11/06 12:33:55;;;;;;;24.57;21.00;;;11.60;99.90;;;;;;5029718;28;21317;-72
2021/11/06 12:36:25;;;;;;;26.07;21.10;;;11.60;99.90;;;;;;5030251;28;21214;-71
2021/11/06 12:38:52;;;;;;;24.20;21.00;;;11.60;99.90;;;;;;5013358;28;20734;-72
2021/11/06 12:41:36;;;;;;;25.77;20.60;;;11.60;99.90;;;;;;5029810;28;20638;-69
2021/11/06 12:44:04;;;;;;;23.00;18.87;;;11.60;99.90;;;;;;5028209;28;21241;-72
2021/11/06 12:46:38;;;;;;;26.30;20.87;;;11.60;99.90;;;;;;5017304;28;21083;-72
2021/11/06 12:49:09;;;;;;;22.90;20.20;;;11.60;99.90;;;;;;5008087;28;20677;-72
2021/11/06 12:51:41;;;;;;;23.40;20.90;;;11.60;99.90;;;;;;5013554;28;21305;-72
2021/11/06 12:54:10;;;;;;;20.30;18.20;;;11.60;99.90;;;;;;5027227;28;20655;-72
2021/11/06 12:56:40;;;;;;;21.70;19.00;;;11.60;99.90;;;;;;5017042;28;21219;-72
2021/11/06 12:59:08;;;;;;;20.67;18.47;;;11.60;99.90;;;;;;5029536;28;20994;-71
2021/11/06 13:01:39;;;;;;;21.20;18.80;;;11.60;99.90;;;;;;5027027;28;20651;-72
2021/11/06 13:04:12;;;;;;;24.10;19.47;;;11.60;99.90;;;;;;5030065;28;20622;-72
2021/11/06 13:06:38;;;;;;;24.37;20.37;;;11.60;99.90;;;;;;5028595;28;20590;-72
2021/11/06 13:09:18;;;;;;;21.87;19.67;;;11.60;99.90;;;;;;5017527;28;20622;-72
2021/11/06 13:11:58;;;;;;;21.67;19.33;;;11.60;99.90;;;;;;5021531;28;20716;-72
2021/11/06 13:14:45;;;;;;;25.73;20.77;;;11.60;99.90;;;;;;5021254;28;20632;-71
2021/11/06 13:17:28;;;;;;;22.80;20.40;;;11.60;99.90;;;;;;5026080;28;20630;-71
2021/11/06 13:20:13;;;;;;;23.17;19.30;;;11.50;99.90;;;;;;5008021;28;20612;-72
2021/11/06 13:22:41;;;;;;;23.73;19.33;;;11.50;99.90;;;;;;5023527;28;20582;-71
2021/11/06 13:25:09;;;;;;;22.73;19.03;;;11.40;99.90;;;;;;5032645;28;21256;-71
2021/11/06 13:27:43;;;;;;;24.23;20.23;;;11.50;99.90;;;;;;5017818;28;20604;-70
2021/11/06 13:30:21;;;;;;;22.93;19.50;;;11.50;99.90;;;;;;5012960;28;20611;-70
2021/11/06 13:32:56;;;;;;;25.90;21.33;;;11.50;99.90;;;;;;5021220;28;21179;-71
2021/11/06 13:35:24;;;;;;;22.03;19.70;;;11.50;99.90;;;;;;5017328;28;20578;-71
2021/11/06 13:38:12;;;;;;;21.20;18.17;;;11.50;99.90;;;;;;5019362;28;20611;-71
2021/11/06 13:41:01;;;;;;;22.13;19.10;;;11.40;99.90;;;;;;5014029;28;20644;-71
2021/11/06 13:43:51;;;;;;;24.80;20.07;;;11.40;99.90;;;;;;5020122;28;20681;-72
2021/11/06 13:46:19;;;;;;;21.20;18.70;;;11.50;99.90;;;;;;5018824;28;21183;-68
2021/11/06 13:48:56;;;;;;;20.70;18.60;;;11.50;99.90;;;;;;5012261;28;20646;-72
2021/11/06 13:51:54;;;;;;;24.50;18.60;;;11.50;99.90;;;;;;5015349;28;20662;-71
2021/11/06 13:54:24;;;;;;;20.57;18.37;;;11.50;99.90;;;;;;5008565;28;20656;-72
2021/11/06 13:56:52;;;;;;;25.20;19.17;;;11.50;99.90;;;;;;5017231;28;20623;-71
2021/11/06 13:59:20;;;;;;;22.00;18.60;;;11.50;99.90;;;;;;5020786;28;20653;-71
2021/11/06 14:01:48;;;;;;;22.53;18.93;;;11.50;99.90;;;;;;5021563;28;21086;-71
2021/11/06 14:04:14;;;;;;;20.07;17.97;;;11.60;99.90;;;;;;5017536;28;20624;-72
2021/11/06 14:06:46;;;;;;;30.50;20.70;;;11.60;99.90;;;;;;5037225;28;22102;-71
2021/11/06 14:09:13;;;;;;;22.70;19.50;;;11.50;99.90;;;;;;5012270;28;20635;-72
2021/11/06 14:11:53;;;;;;;21.80;18.40;;;11.50;99.90;;;;;;5013817;28;20761;-70
2021/11/06 14:14:21;;;;;;;21.53;19.37;;;11.60;99.90;;;;;;5020457;28;21037;-72
2021/11/06 14:17:06;;;;;;;23.23;18.83;;;11.60;99.90;;;;;;5010940;28;20636;-71
2021/11/06 14:19:45;;;;;;;20.97;18.70;;;11.50;99.90;;;;;;5015951;28;21702;-71
2021/11/06 14:22:11;;;;;;;20.53;18.27;;;11.50;99.90;;;;;;5019492;28;20694;-71
2021/11/06 14:24:37;;;;;;;19.97;17.97;;;11.50;99.90;;;;;;5017058;28;20620;-71
2021/11/06 14:27:10;;;;;;;19.20;16.70;;;11.50;99.90;;;;;;5024744;28;21190;-71
2021/11/06 14:29:36;;;;;;;21.33;18.63;;;11.40;99.90;;;;;;5024293;28;20875;-71
2021/11/06 14:32:07;;;;;;;20.73;17.90;;;11.40;99.90;;;;;;5018198;28;20691;-71
2021/11/06 14:34:35;;;;;;;20.40;18.07;;;11.50;99.90;;;;;;5023188;28;20703;-78
2021/11/06 14:37:04;;;;;;;20.03;17.90;;;11.50;99.90;;;;;;5025297;28;20608;-74
2021/11/06 14:39:52;;;;;;;20.77;18.57;;;11.40;99.90;;;;;;5040045;28;20623;-71
2021/11/06 14:42:27;;;;;;;19.60;17.50;;;11.40;99.90;;;;;;5021801;28;20650;-74
2021/11/06 14:44:53;;;;;;;19.40;17.20;;;11.40;99.90;;;;;;5018277;28;20591;-71
2021/11/06 14:47:22;;;;;;;21.77;17.73;;;11.40;99.90;;;;;;5032305;28;20617;-73
2021/11/06 14:49:51;;;;;;;18.47;16.40;;;11.30;99.90;;;;;;5017241;28;20648;-72
2021/11/06 14:52:24;;;;;;;21.20;17.63;;;11.40;99.90;;;;;;5020365;28;20646;-71
2021/11/06 14:55:06;;;;;;;20.17;18.17;;;11.40;99.90;;;;;;5021954;28;20683;-71
2021/11/06 14:57:39;;;;;;;19.67;16.40;;;11.60;99.90;;;;;;5014994;28;20727;-70
2021/11/06 15:00:21;;;;;;;19.97;17.97;;;11.40;99.90;;;;;;5035704;28;21212;-71
2021/11/06 15:02:59;;;;;;;18.90;16.97;;;11.40;99.90;;;;;;5012385;28;20716;-71